createdAt,value
2018-11-21T00:00:49.828Z,11.37
2018-11-21T00:03:38.192Z,10.83
2018-11-21T00:06:26.456Z,10.80
2018-11-21T00:09:14.644Z,10.77
2018-11-21T00:12:03.083Z,10.50
2018-11-21T00:17:45.109Z,10.10
2018-11-21T00:20:33.132Z,11.00
2018-11-21T00:23:21.528Z,11.00
2018-11-21T00:26:09.563Z,11.07
2018-11-21T00:28:57.652Z,10.57
2018-11-21T00:31:46.068Z,11.07
2018-11-21T00:34:34.573Z,11.10
2018-11-21T00:37:23.366Z,10.80
2018-11-21T00:40:11.988Z,9.97
2018-11-21T00:43:00.373Z,10.23
2018-11-21T00:45:48.709Z,9.87
2018-11-21T00:48:36.735Z,10.57
2018-11-21T00:51:24.755Z,10.67
2018-11-21T00:54:12.778Z,10.40
2018-11-21T01:00:09.390Z,11.10
2018-11-21T01:02:57.710Z,10.43
2018-11-21T01:05:45.911Z,10.43
2018-11-21T01:08:34.119Z,10.33
2018-11-21T01:11:22.471Z,10.77
2018-11-21T01:14:10.460Z,10.77
2018-11-21T01:16:58.860Z,10.57
2018-11-21T01:19:46.873Z,10.60
2018-11-21T01:22:34.868Z,10.87
2018-11-21T01:25:23.293Z,10.83
2018-11-21T01:28:11.312Z,10.87
2018-11-21T01:30:59.332Z,10.80
2018-11-21T01:33:47.721Z,10.80
2018-11-21T01:36:36.257Z,10.33
2018-11-21T01:39:24.285Z,11.03
2018-11-21T01:42:12.297Z,11.63
2018-11-21T01:45:00.317Z,11.13
2018-11-21T01:47:48.429Z,10.20
2018-11-21T01:50:36.762Z,10.70
2018-11-21T01:53:24.786Z,11.10
2018-11-21T01:56:12.902Z,10.73
2018-11-21T01:59:00.929Z,10.47
2018-11-21T02:01:48.909Z,10.87
2018-11-21T02:04:36.974Z,10.70
2018-11-21T02:07:24.962Z,10.90
2018-11-21T02:10:12.972Z,10.50
2018-11-21T02:13:01.305Z,9.97
2018-11-21T02:15:49.314Z,10.07
2018-11-21T02:18:37.322Z,10.47
2018-11-21T02:21:25.728Z,9.50
2018-11-21T02:24:13.734Z,9.13
2018-11-21T02:27:02.321Z,9.63
2018-11-21T02:29:50.354Z,9.13
2018-11-21T02:32:38.373Z,10.27
2018-11-21T02:35:26.755Z,10.00
2018-11-21T02:38:15.103Z,9.90
2018-11-21T02:41:03.124Z,10.27
2018-11-21T02:43:51.532Z,10.07
2018-11-21T02:46:39.537Z,9.90
2018-11-21T02:49:27.560Z,9.90
2018-11-21T02:52:15.952Z,9.23
2018-11-21T02:55:03.890Z,9.63
2018-11-21T02:57:52.611Z,9.93
2018-11-21T03:00:33.453Z,10.93
2018-11-21T03:03:14.372Z,11.53
2018-11-21T03:05:54.849Z,11.53
2018-11-21T03:08:35.552Z,12.40
2018-11-21T03:11:17.242Z,11.90
2018-11-21T03:13:58.229Z,12.13
2018-11-21T03:16:38.930Z,12.10
2018-11-21T03:19:20.204Z,12.00
2018-11-21T03:22:01.190Z,12.93
2018-11-21T03:24:41.868Z,12.90
2018-11-21T03:27:23.476Z,12.40
2018-11-21T03:30:05.884Z,13.17
2018-11-21T03:32:47.074Z,12.30
2018-11-21T03:35:27.803Z,12.17
2018-11-21T03:38:09.250Z,13.13
2018-11-21T03:40:49.719Z,12.80
2018-11-21T03:43:30.563Z,12.77
2018-11-21T03:46:11.048Z,12.83
2018-11-21T03:48:52.363Z,13.30
2018-11-21T03:51:33.733Z,12.37
2018-11-21T03:54:14.782Z,12.73
2018-11-21T03:56:56.351Z,12.33
2018-11-21T03:59:37.198Z,12.70
2018-11-21T04:02:18.375Z,12.17
2018-11-21T04:04:59.637Z,12.40
2018-11-21T04:07:40.696Z,11.50
2018-11-21T04:10:22.031Z,11.83
2018-11-21T04:13:03.102Z,11.40
2018-11-21T04:15:43.623Z,10.87
2018-11-21T04:18:25.273Z,11.70
2018-11-21T04:21:05.941Z,11.63
2018-11-21T04:23:47.100Z,11.77
2018-11-21T04:26:28.186Z,11.13
2018-11-21T04:29:09.696Z,11.73
2018-11-21T04:31:50.862Z,11.60
2018-11-21T04:34:31.828Z,11.37
2018-11-21T04:37:12.308Z,11.67
2018-11-21T04:39:53.683Z,11.30
2018-11-21T04:42:22.436Z,12.07
2018-11-21T04:44:51.148Z,10.97
2018-11-21T04:47:20.153Z,11.17
2018-11-21T04:49:49.096Z,11.50
2018-11-21T04:52:18.140Z,10.77
2018-11-21T04:54:47.169Z,11.97
2018-11-21T04:57:15.875Z,10.50
2018-11-21T04:59:44.555Z,11.70
2018-11-21T05:02:13.264Z,12.00
2018-11-21T05:04:42.557Z,10.93
2018-11-21T05:07:11.624Z,11.67
2018-11-21T05:09:40.698Z,12.07
2018-11-21T05:12:09.693Z,11.70
2018-11-21T05:14:38.712Z,12.27
2018-11-21T05:17:07.396Z,11.40
2018-11-21T05:19:36.130Z,10.93
2018-11-21T05:22:05.148Z,11.73
2018-11-21T05:24:33.851Z,11.27
2018-11-21T05:27:02.529Z,11.57
2018-11-21T05:29:31.234Z,11.23
2018-11-21T05:32:00.307Z,11.03
2018-11-21T05:34:29.009Z,10.40
2018-11-21T05:36:57.722Z,11.03
2018-11-21T05:39:26.798Z,10.20
2018-11-21T05:41:55.868Z,10.40
2018-11-21T05:44:26.980Z,9.93
2018-11-21T05:46:53.749Z,10.90
2018-11-21T05:49:21.926Z,10.67
2018-11-21T05:51:50.921Z,11.03
2018-11-21T05:54:20.043Z,10.47
2018-11-21T05:56:49.012Z,10.40
2018-11-21T05:59:17.711Z,10.67
2018-11-21T06:01:46.784Z,9.70
2018-11-21T06:04:15.486Z,10.00
2018-11-21T06:06:44.165Z,9.27
2018-11-21T06:09:13.650Z,9.17
2018-11-21T06:11:43.334Z,9.23
2018-11-21T06:14:12.404Z,9.33
2018-11-21T06:16:41.463Z,9.57
2018-11-21T06:19:10.484Z,9.13
2018-11-21T06:21:39.548Z,8.93
2018-11-21T06:24:08.246Z,9.20
2018-11-21T06:26:37.246Z,9.43
2018-11-21T06:29:05.936Z,9.90
2018-11-21T06:31:34.952Z,9.53
2018-11-21T06:34:04.012Z,8.73
2018-11-21T06:36:32.709Z,9.13
2018-11-21T06:39:01.682Z,9.70
2018-11-21T06:41:30.784Z,8.93
2018-11-21T06:43:59.448Z,9.03
2018-11-21T06:46:29.023Z,9.17
2018-11-21T06:48:58.065Z,8.77
2018-11-21T06:51:26.828Z,8.87
2018-11-21T06:53:55.490Z,8.80
2018-11-21T06:56:24.786Z,8.87
2018-11-21T06:58:55.233Z,8.97
2018-11-21T07:01:22.805Z,9.33
2018-11-21T07:03:51.488Z,9.43
2018-11-21T07:06:20.695Z,9.33
2018-11-21T07:08:49.715Z,9.20
2018-11-21T07:11:18.886Z,9.17
2018-11-21T07:13:47.572Z,8.63
2018-11-21T07:16:16.271Z,8.80
2018-11-21T07:18:45.257Z,9.23
2018-11-21T07:21:14.569Z,9.30
2018-11-21T07:23:43.589Z,8.80
2018-11-21T07:26:12.253Z,9.00
2018-11-21T07:28:41.070Z,8.90
2018-11-21T07:31:09.755Z,9.03
2018-11-21T07:33:38.463Z,9.27
2018-11-21T07:36:16.122Z,9.23
2018-11-21T07:38:45.143Z,9.33
2018-11-21T07:41:14.022Z,8.63
2018-11-21T07:43:43.143Z,9.63
2018-11-21T07:46:11.805Z,9.60
2018-11-21T07:48:40.495Z,9.83
2018-11-21T07:51:09.567Z,8.90
2018-11-21T07:53:38.302Z,9.43
2018-11-21T07:56:51.739Z,9.03
2018-11-21T07:59:20.823Z,9.13
2018-11-21T08:02:14.608Z,9.17
2018-11-21T08:04:59.680Z,9.07
2018-11-21T08:07:42.955Z,8.83
2018-11-21T08:10:30.743Z,9.40
2018-11-21T08:13:17.331Z,8.93
2018-11-21T08:16:05.148Z,9.50
2018-11-21T08:18:51.601Z,8.77
2018-11-21T08:21:42.206Z,8.60
2018-11-21T08:24:39.194Z,9.03
2018-11-21T08:27:25.441Z,8.90
2018-11-21T08:29:54.505Z,8.20
2018-11-21T08:32:23.603Z,8.80
2018-11-21T08:34:52.273Z,8.47
2018-11-21T08:37:20.976Z,8.97
2018-11-21T08:39:49.645Z,8.90
2018-11-21T08:42:18.348Z,8.93
2018-11-21T08:44:47.021Z,9.00
2018-11-21T08:47:16.043Z,8.47
2018-11-21T08:49:45.095Z,7.97
2018-11-21T08:52:14.128Z,8.30
2018-11-21T08:54:43.186Z,8.07
2018-11-21T08:57:24.102Z,7.93
2018-11-21T08:59:52.778Z,8.40
2018-11-21T09:02:21.468Z,8.33
2018-11-21T09:04:50.169Z,8.17
2018-11-21T09:07:18.879Z,7.67
2018-11-21T09:09:47.541Z,7.50
2018-11-21T09:12:16.314Z,7.80
2018-11-21T09:14:44.981Z,8.37
2018-11-21T09:17:13.687Z,8.57
2018-11-21T09:19:42.748Z,7.80
2018-11-21T09:22:11.586Z,8.40
2018-11-21T09:24:40.645Z,8.17
2018-11-21T09:27:09.662Z,8.30
2018-11-21T09:29:38.325Z,7.80
2018-11-21T09:32:07.466Z,8.03
2018-11-21T09:34:36.319Z,7.90
2018-11-21T09:37:05.439Z,7.83
2018-11-21T09:39:34.494Z,7.97
2018-11-21T09:42:03.202Z,7.90
2018-11-21T09:44:31.863Z,8.40
2018-11-21T09:47:00.580Z,7.87
2018-11-21T09:49:29.649Z,8.20
2018-11-21T09:51:58.340Z,8.03
2018-11-21T09:54:27.003Z,7.70
2018-11-21T09:56:55.662Z,8.03
2018-11-21T09:59:24.356Z,7.90
2018-11-21T10:02:29.600Z,8.10
2018-11-21T10:04:58.657Z,8.07
2018-11-21T10:07:27.725Z,8.13
2018-11-21T10:09:56.422Z,8.97
2018-11-21T10:12:25.402Z,8.37
2018-11-21T10:14:54.429Z,8.57
2018-11-21T10:17:23.099Z,8.10
2018-11-21T10:19:51.807Z,8.47
2018-11-21T10:22:20.863Z,8.20
2018-11-21T10:24:49.888Z,8.73
2018-11-21T10:27:18.558Z,8.57
2018-11-21T10:29:47.261Z,8.47
2018-11-21T10:32:15.934Z,8.60
2018-11-21T10:34:45.045Z,7.67
2018-11-21T10:37:13.703Z,8.43
2018-11-21T10:39:43.156Z,8.53
2018-11-21T10:42:12.632Z,7.90
2018-11-21T10:44:48.035Z,7.90
2018-11-21T10:47:17.235Z,7.87
2018-11-21T10:49:46.377Z,8.77
2018-11-21T10:52:15.443Z,7.77
2018-11-21T10:54:44.142Z,7.97
2018-11-21T10:57:12.816Z,8.23
2018-11-21T10:59:42.112Z,7.90
2018-11-21T11:02:16.699Z,8.47
2018-11-21T11:05:14.044Z,7.60
2018-11-21T11:08:07.892Z,7.80
2018-11-21T11:10:54.683Z,7.70
2018-11-21T11:13:54.348Z,8.13
2018-11-21T11:16:42.130Z,7.20
2018-11-21T11:19:28.943Z,8.50
2018-11-21T11:22:15.290Z,7.97
2018-11-21T11:25:03.090Z,7.70
2018-11-21T11:27:49.854Z,7.40
2018-11-21T11:30:43.822Z,7.30
2018-11-21T11:33:40.655Z,16.97
2018-11-21T11:36:43.399Z,12.13
2018-11-21T11:39:40.280Z,7.63
2018-11-21T11:42:33.763Z,6.63
2018-11-21T11:45:25.802Z,7.80
2018-11-21T11:48:28.515Z,16.80
2018-11-21T11:51:31.522Z,12.90
2018-11-21T11:54:17.880Z,8.90
2018-11-21T11:57:01.404Z,14.23
2018-11-21T11:59:47.840Z,7.37
2018-11-21T12:02:34.012Z,7.17
2018-11-21T12:05:20.392Z,7.53
2018-11-21T12:08:17.506Z,7.40
2018-11-21T12:11:05.326Z,6.93
2018-11-21T12:13:51.800Z,7.80
2018-11-21T12:16:42.053Z,7.03
2018-11-21T12:19:28.813Z,6.93
2018-11-21T12:22:15.537Z,7.20
2018-11-21T12:25:12.153Z,7.37
2018-11-21T12:28:03.328Z,7.00
2018-11-21T12:30:48.073Z,7.17
2018-11-21T12:33:35.857Z,6.50
2018-11-21T12:36:22.576Z,6.67
2018-11-21T12:39:08.917Z,7.07
2018-11-21T12:41:55.097Z,7.20
2018-11-21T12:44:45.727Z,7.00
2018-11-21T12:47:26.863Z,7.13
2018-11-21T12:50:13.045Z,7.20
2018-11-21T12:53:06.676Z,6.87
2018-11-21T12:55:55.222Z,6.60
2018-11-21T12:58:35.749Z,7.20
2018-11-21T13:01:32.141Z,6.80
2018-11-21T13:04:13.353Z,6.77
2018-11-21T13:07:07.945Z,6.83
2018-11-21T13:09:56.832Z,7.27
2018-11-21T13:12:44.713Z,7.10
2018-11-21T13:19:00.048Z,6.60
2018-11-21T13:22:05.805Z,6.90
2018-11-21T13:24:53.589Z,7.70
2018-11-21T13:27:56.496Z,6.70
2018-11-21T13:30:44.805Z,7.20
2018-11-21T13:33:33.053Z,7.10
2018-11-21T13:36:23.877Z,7.03
2018-11-21T13:39:10.377Z,6.80
2018-11-21T13:41:57.290Z,6.67
2018-11-21T13:44:51.199Z,7.27
2018-11-21T13:47:44.790Z,7.37
2018-11-21T13:50:41.659Z,6.93
2018-11-21T13:53:35.521Z,7.00
2018-11-21T13:56:34.923Z,7.73
2018-11-21T13:59:03.626Z,7.83
2018-11-21T14:01:32.286Z,7.50
2018-11-21T14:04:00.976Z,7.70
2018-11-21T14:06:30.051Z,7.03
2018-11-21T14:08:59.151Z,8.20
2018-11-21T14:11:28.216Z,7.90
2018-11-21T14:14:01.316Z,6.80
2018-11-21T14:16:25.993Z,7.67
2018-11-21T14:18:54.688Z,7.13
2018-11-21T14:21:23.356Z,7.40
2018-11-21T14:23:52.062Z,7.17
2018-11-21T14:26:21.180Z,7.87
2018-11-21T14:28:50.678Z,7.27
2018-11-21T14:31:19.386Z,7.50
2018-11-21T14:33:48.302Z,7.50
2018-11-21T14:36:17.003Z,6.93
2018-11-21T14:38:46.616Z,7.27
2018-11-21T14:41:15.709Z,7.23
2018-11-21T14:43:44.724Z,7.37
2018-11-21T14:46:13.432Z,7.03
2018-11-21T14:48:43.032Z,6.73
2018-11-21T14:51:12.202Z,7.10
2018-11-21T14:53:41.112Z,6.80
2018-11-21T14:56:10.225Z,6.93
2018-11-21T14:58:38.894Z,6.90
2018-11-21T15:01:07.586Z,7.03
2018-11-21T15:03:36.668Z,7.33
2018-11-21T15:06:05.820Z,6.90
2018-11-21T15:08:34.488Z,9.00
2018-11-21T15:11:03.183Z,7.13
2018-11-21T15:13:31.848Z,7.23
2018-11-21T15:16:00.848Z,6.97
2018-11-21T15:18:30.014Z,6.67
2018-11-21T15:20:58.725Z,7.30
2018-11-21T15:23:27.397Z,7.33
2018-11-21T15:25:56.103Z,6.43
2018-11-21T15:28:25.171Z,6.87
2018-11-21T15:30:54.193Z,7.07
2018-11-21T15:33:22.859Z,7.10
2018-11-21T15:35:51.581Z,7.07
2018-11-21T15:38:20.631Z,7.50
2018-11-21T15:40:49.343Z,7.43
2018-11-21T15:43:18.034Z,6.77
2018-11-21T15:45:47.142Z,7.37
2018-11-21T15:48:16.233Z,7.30
2018-11-21T15:50:44.909Z,9.07
2018-11-21T15:53:13.622Z,7.53
2018-11-21T15:55:42.670Z,7.63
2018-11-21T15:58:11.380Z,6.60
2018-11-21T16:00:40.455Z,7.27
2018-11-21T16:03:10.422Z,7.07
2018-11-21T16:05:39.170Z,7.27
2018-11-21T16:08:08.215Z,7.27
2018-11-21T16:10:39.068Z,6.80
